sensor_id;sensor_type;location;lat;lon;timestamp;temperature;humidity
20370;DHT22;10344;47.592;9.600;2023-01-01T00:00:29;7.00;99.90
20370;DHT22;10344;47.592;9.600;2023-01-01T00:02:58;7.00;99.90
20370;DHT22;10344;47.592;9.600;2023-01-01T00:05:25;7.00;99.90
20370;DHT22;10344;47.592;9.600;2023-01-01T00:07:54;7.00;99.90
20370;DHT22;10344;47.592;9.600;2023-01-01T00:10:19;7.10;99.90
20370;DHT22;10344;47.592;9.600;2023-01-01T00:12:55;7.00;99.90
20370;DHT22;10344;47.592;9.600;2023-01-01T00:15:24;7.10;99.90
20370;DHT22;10344;47.592;9.600;2023-01-01T00:17:50;7.00;99.90
20370;DHT22;10344;47.592;9.600;2023-01-01T00:20:20;7.00;99.90
20370;DHT22;10344;47.592;9.600;2023-01-01T00:22:46;7.00;99.90
20370;DHT22;10344;47.592;9.600;2023-01-01T00:25:12;7.00;99.90
20370;DHT22;10344;47.592;9.600;2023-01-01T00:27:39;6.90;99.90
20370;DHT22;10344;47.592;9.600;2023-01-01T00:30:05;6.70;99.90
20370;DHT22;10344;47.592;9.600;2023-01-01T00:34:57;6.60;99.90
20370;DHT22;10344;47.592;9.600;2023-01-01T00:37:23;6.60;99.90
20370;DHT22;10344;47.592;9.600;2023-01-01T00:39:50;6.50;99.90
20370;DHT22;10344;47.592;9.600;2023-01-01T00:42:16;6.50;99.90
20370;DHT22;10344;47.592;9.600;2023-01-01T00:44:41;6.70;99.90
20370;DHT22;10344;47.592;9.600;2023-01-01T00:47:09;6.50;99.90
20370;DHT22;10344;47.592;9.600;2023-01-01T00:49:35;6.50;99.90
20370;DHT22;10344;47.592;9.600;2023-01-01T00:52:01;6.50;99.90
20370;DHT22;10344;47.592;9.600;2023-01-01T00:54:28;6.50;99.90
20370;DHT22;10344;47.592;9.600;2023-01-01T00:56:53;6.40;99.90
20370;DHT22;10344;47.592;9.600;2023-01-01T00:59:24;6.30;99.90
20370;DHT22;10344;47.592;9.600;2023-01-01T01:01:52;6.50;99.90
20370;DHT22;10344;47.592;9.600;2023-01-01T01:04:18;6.50;99.90
20370;DHT22;10344;47.592;9.600;2023-01-01T01:06:43;6.40;99.90
20370;DHT22;10344;47.592;9.600;2023-01-01T01:09:09;6.30;99.90
20370;DHT22;10344;47.592;9.600;2023-01-01T01:11:34;6.30;99.90
20370;DHT22;10344;47.592;9.600;2023-01-01T01:14:00;6.30;99.90
20370;DHT22;10344;47.592;9.600;2023-01-01T01:18:53;6.20;99.90
20370;DHT22;10344;47.592;9.600;2023-01-01T01:21:23;6.20;99.90
20370;DHT22;10344;47.592;9.600;2023-01-01T01:23:49;6.20;99.90
20370;DHT22;10344;47.592;9.600;2023-01-01T01:26:22;6.10;99.90
20370;DHT22;10344;47.592;9.600;2023-01-01T01:28:51;6.10;99.90
20370;DHT22;10344;47.592;9.600;2023-01-01T01:31:21;6.00;99.90
20370;DHT22;10344;47.592;9.600;2023-01-01T01:33:52;6.10;99.90
20370;DHT22;10344;47.592;9.600;2023-01-01T01:36:18;6.10;99.90
20370;DHT22;10344;47.592;9.600;2023-01-01T01:38:44;6.20;99.90
20370;DHT22;10344;47.592;9.600;2023-01-01T01:41:15;6.30;99.90
20370;DHT22;10344;47.592;9.600;2023-01-01T01:46:36;6.40;99.90
20370;DHT22;10344;47.592;9.600;2023-01-01T01:49:16;6.40;99.90
20370;DHT22;10344;47.592;9.600;2023-01-01T01:51:47;6.70;99.90
20370;DHT22;10344;47.592;9.600;2023-01-01T01:54:21;6.70;99.90
20370;DHT22;10344;47.592;9.600;2023-01-01T01:56:49;7.00;99.90
20370;DHT22;10344;47.592;9.600;2023-01-01T01:59:17;7.00;99.90
20370;DHT22;10344;47.592;9.600;2023-01-01T02:01:43;6.90;99.90
20370;DHT22;10344;47.592;9.600;2023-01-01T02:04:11;6.80;99.90
20370;DHT22;10344;47.592;9.600;2023-01-01T02:06:40;6.80;99.90
20370;DHT22;10344;47.592;9.600;2023-01-01T02:09:06;6.70;99.90
20370;DHT22;10344;47.592;9.600;2023-01-01T02:11:33;6.70;99.90
20370;DHT22;10344;47.592;9.600;2023-01-01T02:14:00;6.70;99.90
20370;DHT22;10344;47.592;9.600;2023-01-01T02:16:28;6.70;99.90
20370;DHT22;10344;47.592;9.600;2023-01-01T02:27:00;6.80;99.90
20370;DHT22;10344;47.592;9.600;2023-01-01T02:29:55;6.70;99.90
20370;DHT22;10344;47.592;9.600;2023-01-01T02:32:30;6.60;99.90
20370;DHT22;10344;47.592;9.600;2023-01-01T02:35:23;6.80;99.90
20370;DHT22;10344;47.592;9.600;2023-01-01T02:38:16;6.90;99.90
20370;DHT22;10344;47.592;9.600;2023-01-01T02:40:46;6.90;99.90
20370;DHT22;10344;47.592;9.600;2023-01-01T02:43:15;6.90;99.90
20370;DHT22;10344;47.592;9.600;2023-01-01T02:45:41;6.80;99.90
20370;DHT22;10344;47.592;9.600;2023-01-01T02:48:34;6.80;99.90
20370;DHT22;10344;47.592;9.600;2023-01-01T02:51:03;6.70;99.90
20370;DHT22;10344;47.592;9.600;2023-01-01T02:53:36;6.60;99.90
20370;DHT22;10344;47.592;9.600;2023-01-01T03:13:30;6.60;99.90
20370;DHT22;10344;47.592;9.600;2023-01-01T03:16:38;6.50;99.90
20370;DHT22;10344;47.592;9.600;2023-01-01T03:19:13;6.40;99.90
20370;DHT22;10344;47.592;9.600;2023-01-01T03:21:58;6.50;99.90
20370;DHT22;10344;47.592;9.600;2023-01-01T03:27:14;6.60;99.90
20370;DHT22;10344;47.592;9.600;2023-01-01T03:29:45;6.60;99.90
20370;DHT22;10344;47.592;9.600;2023-01-01T03:32:18;6.50;99.90
20370;DHT22;10344;47.592;9.600;2023-01-01T03:34:50;6.30;99.90
20370;DHT22;10344;47.592;9.600;2023-01-01T03:37:25;6.20;99.90
20370;DHT22;10344;47.592;9.600;2023-01-01T03:39:56;6.20;99.90
20370;DHT22;10344;47.592;9.600;2023-01-01T03:42:31;6.30;99.90
20370;DHT22;10344;47.592;9.600;2023-01-01T03:45:12;6.30;99.90
20370;DHT22;10344;47.592;9.600;2023-01-01T03:47:43;6.30;99.90
20370;DHT22;10344;47.592;9.600;2023-01-01T03:50:14;6.50;99.90
20370;DHT22;10344;47.592;9.600;2023-01-01T03:55:36;6.30;99.90
20370;DHT22;10344;47.592;9.600;2023-01-01T04:00:45;6.40;99.90
20370;DHT22;10344;47.592;9.600;2023-01-01T04:03:21;6.30;99.90
20370;DHT22;10344;47.592;9.600;2023-01-01T04:05:47;6.40;99.90
20370;DHT22;10344;47.592;9.600;2023-01-01T04:08:15;6.40;99.90
20370;DHT22;10344;47.592;9.600;2023-01-01T04:10:55;6.40;99.90
20370;DHT22;10344;47.592;9.600;2023-01-01T04:13:26;6.30;99.90
20370;DHT22;10344;47.592;9.600;2023-01-01T04:15:54;6.20;99.90
20370;DHT22;10344;47.592;9.600;2023-01-01T04:18:22;6.00;99.90
20370;DHT22;10344;47.592;9.600;2023-01-01T04:20:48;6.00;99.90
20370;DHT22;10344;47.592;9.600;2023-01-01T04:23:16;6.00;99.90
20370;DHT22;10344;47.592;9.600;2023-01-01T04:25:43;5.90;99.90
20370;DHT22;10344;47.592;9.600;2023-01-01T04:28:09;5.80;99.90
20370;DHT22;10344;47.592;9.600;2023-01-01T04:30:37;5.80;99.90
20370;DHT22;10344;47.592;9.600;2023-01-01T04:33:05;5.90;99.90
20370;DHT22;10344;47.592;9.600;2023-01-01T04:35:30;5.90;99.90
20370;DHT22;10344;47.592;9.600;2023-01-01T04:37:58;5.90;99.90
20370;DHT22;10344;47.592;9.600;2023-01-01T04:40:24;5.90;99.90
20370;DHT22;10344;47.592;9.600;2023-01-01T04:42:52;5.90;99.90
20370;DHT22;10344;47.592;9.600;2023-01-01T04:45:18;5.90;99.90
20370;DHT22;10344;47.592;9.600;2023-01-01T04:47:46;5.80;99.90
20370;DHT22;10344;47.592;9.600;2023-01-01T04:50:12;6.00;99.90
20370;DHT22;10344;47.592;9.600;2023-01-01T04:52:42;6.00;99.90
20370;DHT22;10344;47.592;9.600;2023-01-01T04:55:12;6.00;99.90
20370;DHT22;10344;47.592;9.600;2023-01-01T04:57:37;6.00;99.90
20370;DHT22;10344;47.592;9.600;2023-01-01T05:00:03;6.00;99.90
20370;DHT22;10344;47.592;9.600;2023-01-01T05:02:31;6.20;99.90
20370;DHT22;10344;47.592;9.600;2023-01-01T05:04:59;6.10;99.90
20370;DHT22;10344;47.592;9.600;2023-01-01T05:07:27;6.20;99.90
20370;DHT22;10344;47.592;9.600;2023-01-01T05:09:55;6.10;99.90
20370;DHT22;10344;47.592;9.600;2023-01-01T05:12:23;6.00;99.90
20370;DHT22;10344;47.592;9.600;2023-01-01T05:14:51;6.10;99.90
20370;DHT22;10344;47.592;9.600;2023-01-01T05:17:17;6.30;99.90
20370;DHT22;10344;47.592;9.600;2023-01-01T05:19:44;6.30;99.90
20370;DHT22;10344;47.592;9.600;2023-01-01T05:22:10;6.50;99.90
20370;DHT22;10344;47.592;9.600;2023-01-01T05:24:35;6.60;99.90
20370;DHT22;10344;47.592;9.600;2023-01-01T05:27:04;6.50;99.90
20370;DHT22;10344;47.592;9.600;2023-01-01T05:29:29;6.40;99.90
20370;DHT22;10344;47.592;9.600;2023-01-01T05:31:55;6.40;99.90
20370;DHT22;10344;47.592;9.600;2023-01-01T05:34:20;6.30;99.90
20370;DHT22;10344;47.592;9.600;2023-01-01T05:36:46;6.40;99.90
20370;DHT22;10344;47.592;9.600;2023-01-01T05:39:12;6.30;99.90
20370;DHT22;10344;47.592;9.600;2023-01-01T05:41:38;6.30;99.90
20370;DHT22;10344;47.592;9.600;2023-01-01T05:44:05;6.30;99.90
20370;DHT22;10344;47.592;9.600;2023-01-01T05:46:36;6.30;99.90
20370;DHT22;10344;47.592;9.600;2023-01-01T05:49:08;6.30;99.90
20370;DHT22;10344;47.592;9.600;2023-01-01T05:51:34;6.30;99.90
20370;DHT22;10344;47.592;9.600;2023-01-01T05:54:01;6.30;99.90
20370;DHT22;10344;47.592;9.600;2023-01-01T05:56:32;6.20;99.90
20370;DHT22;10344;47.592;9.600;2023-01-01T05:58:58;6.20;99.90
20370;DHT22;10344;47.592;9.600;2023-01-01T06:01:27;6.20;99.90
20370;DHT22;10344;47.592;9.600;2023-01-01T06:03:57;6.10;99.90
20370;DHT22;10344;47.592;9.600;2023-01-01T06:06:25;6.30;99.90
20370;DHT22;10344;47.592;9.600;2023-01-01T06:08:59;6.60;99.90
20370;DHT22;10344;47.592;9.600;2023-01-01T06:11:28;6.50;99.90
20370;DHT22;10344;47.592;9.600;2023-01-01T06:13:58;6.20;99.90
20370;DHT22;10344;47.592;9.600;2023-01-01T06:16:25;6.10;99.90
20370;DHT22;10344;47.592;9.600;2023-01-01T06:18:54;6.00;99.90
20370;DHT22;10344;47.592;9.600;2023-01-01T06:21:22;6.00;99.90
20370;DHT22;10344;47.592;9.600;2023-01-01T06:23:53;5.90;99.90
20370;DHT22;10344;47.592;9.600;2023-01-01T06:26:26;5.90;99.90
20370;DHT22;10344;47.592;9.600;2023-01-01T06:28:52;6.10;99.90
20370;DHT22;10344;47.592;9.600;2023-01-01T06:31:19;6.10;99.90
20370;DHT22;10344;47.592;9.600;2023-01-01T06:33:46;6.10;99.90
20370;DHT22;10344;47.592;9.600;2023-01-01T06:36:16;6.00;99.90
20370;DHT22;10344;47.592;9.600;2023-01-01T06:38:46;5.90;99.90
20370;DHT22;10344;47.592;9.600;2023-01-01T06:41:21;5.90;99.90
20370;DHT22;10344;47.592;9.600;2023-01-01T06:43:47;5.80;99.90
20370;DHT22;10344;47.592;9.600;2023-01-01T06:48:45;5.80;99.90
20370;DHT22;10344;47.592;9.600;2023-01-01T06:51:41;5.70;99.90
20370;DHT22;10344;47.592;9.600;2023-01-01T06:54:10;5.70;99.90
20370;DHT22;10344;47.592;9.600;2023-01-01T06:56:36;5.60;99.90
20370;DHT22;10344;47.592;9.600;2023-01-01T06:59:07;5.60;99.90
20370;DHT22;10344;47.592;9.600;2023-01-01T07:01:37;5.70;99.90
20370;DHT22;10344;47.592;9.600;2023-01-01T07:04:06;5.60;99.90
20370;DHT22;10344;47.592;9.600;2023-01-01T07:06:33;5.60;99.90
20370;DHT22;10344;47.592;9.600;2023-01-01T07:09:00;5.50;99.90
20370;DHT22;10344;47.592;9.600;2023-01-01T07:11:30;5.50;99.90
20370;DHT22;10344;47.592;9.600;2023-01-01T07:14:01;5.50;99.90
20370;DHT22;10344;47.592;9.600;2023-01-01T07:16:29;5.50;99.90
20370;DHT22;10344;47.592;9.600;2023-01-01T07:18:54;5.50;99.90
20370;DHT22;10344;47.592;9.600;2023-01-01T07:21:30;5.50;99.90
20370;DHT22;10344;47.592;9.600;2023-01-01T07:23:59;5.60;99.90
20370;DHT22;10344;47.592;9.600;2023-01-01T07:26:25;5.60;99.90
20370;DHT22;10344;47.592;9.600;2023-01-01T07:28:51;5.60;99.90
20370;DHT22;10344;47.592;9.600;2023-01-01T07:31:17;5.60;99.90
20370;DHT22;10344;47.592;9.600;2023-01-01T07:33:45;5.80;99.90
20370;DHT22;10344;47.592;9.600;2023-01-01T07:36:15;5.80;99.90
20370;DHT22;10344;47.592;9.600;2023-01-01T07:38:46;5.80;99.90
20370;DHT22;10344;47.592;9.600;2023-01-01T07:41:12;6.00;99.90
20370;DHT22;10344;47.592;9.600;2023-01-01T07:43:37;6.00;99.90
20370;DHT22;10344;47.592;9.600;2023-01-01T07:46:03;6.10;99.90
20370;DHT22;10344;47.592;9.600;2023-01-01T07:48:29;6.10;99.90
20370;DHT22;10344;47.592;9.600;2023-01-01T07:50:57;6.30;99.90
20370;DHT22;10344;47.592;9.600;2023-01-01T07:53:25;6.20;99.90
20370;DHT22;10344;47.592;9.600;2023-01-01T07:55:51;6.50;99.90
20370;DHT22;10344;47.592;9.600;2023-01-01T07:58:17;6.60;99.90
20370;DHT22;10344;47.592;9.600;2023-01-01T08:00:45;6.60;99.90
20370;DHT22;10344;47.592;9.600;2023-01-01T08:03:11;6.80;99.90
20370;DHT22;10344;47.592;9.600;2023-01-01T08:05:40;7.00;99.90
20370;DHT22;10344;47.592;9.600;2023-01-01T08:08:05;7.20;99.90
20370;DHT22;10344;47.592;9.600;2023-01-01T08:10:33;7.70;99.90
20370;DHT22;10344;47.592;9.600;2023-01-01T08:13:04;8.50;99.90
20370;DHT22;10344;47.592;9.600;2023-01-01T08:15:30;9.70;99.90
20370;DHT22;10344;47.592;9.600;2023-01-01T08:17:57;10.90;99.90
20370;DHT22;10344;47.592;9.600;2023-01-01T08:20:24;11.80;99.90
20370;DHT22;10344;47.592;9.600;2023-01-01T08:22:50;12.30;99.90
20370;DHT22;10344;47.592;9.600;2023-01-01T08:25:15;12.90;99.90
20370;DHT22;10344;47.592;9.600;2023-01-01T08:27:41;13.30;99.90
20370;DHT22;10344;47.592;9.600;2023-01-01T08:30:07;13.70;99.90
20370;DHT22;10344;47.592;9.600;2023-01-01T08:32:34;13.80;99.90
20370;DHT22;10344;47.592;9.600;2023-01-01T08:34:59;14.20;99.90
20370;DHT22;10344;47.592;9.600;2023-01-01T08:37:25;14.20;99.90
20370;DHT22;10344;47.592;9.600;2023-01-01T08:39:51;14.30;99.90
20370;DHT22;10344;47.592;9.600;2023-01-01T08:42:17;14.30;99.90
20370;DHT22;10344;47.592;9.600;2023-01-01T08:44:42;14.20;99.90
20370;DHT22;10344;47.592;9.600;2023-01-01T08:47:25;14.40;99.90
20370;DHT22;10344;47.592;9.600;2023-01-01T08:49:51;14.60;99.90
20370;DHT22;10344;47.592;9.600;2023-01-01T08:52:20;14.70;99.90
20370;DHT22;10344;47.592;9.600;2023-01-01T08:54:45;14.40;99.90
20370;DHT22;10344;47.592;9.600;2023-01-01T08:57:11;14.30;99.90
20370;DHT22;10344;47.592;9.600;2023-01-01T08:59:37;14.20;99.90
20370;DHT22;10344;47.592;9.600;2023-01-01T09:02:05;14.00;99.90
20370;DHT22;10344;47.592;9.600;2023-01-01T09:04:31;13.90;99.90
20370;DHT22;10344;47.592;9.600;2023-01-01T09:06:59;14.10;99.90
20370;DHT22;10344;47.592;9.600;2023-01-01T09:09:27;14.20;99.90
20370;DHT22;10344;47.592;9.600;2023-01-01T09:11:55;14.30;99.90
20370;DHT22;10344;47.592;9.600;2023-01-01T09:14:21;14.40;99.90
20370;DHT22;10344;47.592;9.600;2023-01-01T09:16:46;14.60;99.90
20370;DHT22;10344;47.592;9.600;2023-01-01T09:19:12;14.80;99.90
20370;DHT22;10344;47.592;9.600;2023-01-01T09:21:40;15.00;99.90
20370;DHT22;10344;47.592;9.600;2023-01-01T09:24:06;15.20;99.90
20370;DHT22;10344;47.592;9.600;2023-01-01T09:26:32;15.40;99.90
20370;DHT22;10344;47.592;9.600;2023-01-01T09:28:57;15.40;99.90
20370;DHT22;10344;47.592;9.600;2023-01-01T09:31:23;15.00;99.90
20370;DHT22;10344;47.592;9.600;2023-01-01T09:33:49;14.90;99.90
20370;DHT22;10344;47.592;9.600;2023-01-01T09:36:31;14.70;99.90
20370;DHT22;10344;47.592;9.600;2023-01-01T09:39:00;14.90;99.90
20370;DHT22;10344;47.592;9.600;2023-01-01T09:46:42;14.60;99.90
20370;DHT22;10344;47.592;9.600;2023-01-01T09:49:20;14.60;99.90
20370;DHT22;10344;47.592;9.600;2023-01-01T09:51:53;14.40;99.90
20370;DHT22;10344;47.592;9.600;2023-01-01T09:54:28;14.20;99.90
20370;DHT22;10344;47.592;9.600;2023-01-01T09:56:59;14.10;99.90
20370;DHT22;10344;47.592;9.600;2023-01-01T09:59:25;14.20;99.90
20370;DHT22;10344;47.592;9.600;2023-01-01T10:13:58;15.70;99.90
20370;DHT22;10344;47.592;9.600;2023-01-01T10:16:41;15.40;99.90
20370;DHT22;10344;47.592;9.600;2023-01-01T10:19:27;15.40;99.90
20370;DHT22;10344;47.592;9.600;2023-01-01T10:21:59;15.40;99.90
20370;DHT22;10344;47.592;9.600;2023-01-01T10:27:06;15.70;99.90
20370;DHT22;10344;47.592;9.600;2023-01-01T10:29:44;16.10;99.90
20370;DHT22;10344;47.592;9.600;2023-01-01T10:34:43;16.90;99.90
20370;DHT22;10344;47.592;9.600;2023-01-01T10:37:09;17.00;99.90
20370;DHT22;10344;47.592;9.600;2023-01-01T10:39:39;16.90;99.90
20370;DHT22;10344;47.592;9.600;2023-01-01T10:42:05;17.10;99.90
20370;DHT22;10344;47.592;9.600;2023-01-01T10:44:33;17.40;99.90
20370;DHT22;10344;47.592;9.600;2023-01-01T10:47:08;17.40;99.90
20370;DHT22;10344;47.592;9.600;2023-01-01T10:50:04;17.70;99.90
20370;DHT22;10344;47.592;9.600;2023-01-01T10:52:37;17.80;99.90
20370;DHT22;10344;47.592;9.600;2023-01-01T10:55:27;18.00;99.90
20370;DHT22;10344;47.592;9.600;2023-01-01T10:57:52;18.10;99.90
20370;DHT22;10344;47.592;9.600;2023-01-01T11:00:24;18.00;99.90
20370;DHT22;10344;47.592;9.600;2023-01-01T11:05:37;18.10;99.90
20370;DHT22;10344;47.592;9.600;2023-01-01T11:08:04;18.10;99.90
20370;DHT22;10344;47.592;9.600;2023-01-01T11:10:41;17.80;99.90
20370;DHT22;10344;47.592;9.600;2023-01-01T11:13:18;17.50;99.90
20370;DHT22;10344;47.592;9.600;2023-01-01T11:15:45;17.00;99.90
20370;DHT22;10344;47.592;9.600;2023-01-01T11:18:21;16.80;99.90
20370;DHT22;10344;47.592;9.600;2023-01-01T11:20:56;16.50;99.90
20370;DHT22;10344;47.592;9.600;2023-01-01T11:23:37;16.40;99.90
20370;DHT22;10344;47.592;9.600;2023-01-01T11:26:18;16.50;99.90
20370;DHT22;10344;47.592;9.600;2023-01-01T11:29:02;16.50;99.90
20370;DHT22;10344;47.592;9.600;2023-01-01T11:31:41;16.40;99.90
20370;DHT22;10344;47.592;9.600;2023-01-01T11:34:27;16.10;99.90
20370;DHT22;10344;47.592;9.600;2023-01-01T11:37:08;15.90;99.90
20370;DHT22;10344;47.592;9.600;2023-01-01T11:39:35;15.70;99.90
20370;DHT22;10344;47.592;9.600;2023-01-01T11:42:02;15.60;99.90
20370;DHT22;10344;47.592;9.600;2023-01-01T11:44:41;15.50;99.90
20370;DHT22;10344;47.592;9.600;2023-01-01T11:50:05;15.60;99.90
20370;DHT22;10344;47.592;9.600;2023-01-01T11:52:43;15.60;99.90
20370;DHT22;10344;47.592;9.600;2023-01-01T11:57:54;15.70;99.90
20370;DHT22;10344;47.592;9.600;2023-01-01T12:00:21;15.60;99.90
20370;DHT22;10344;47.592;9.600;2023-01-01T12:03:03;15.50;99.90
20370;DHT22;10344;47.592;9.600;2023-01-01T12:13:52;15.10;99.90
20370;DHT22;10344;47.592;9.600;2023-01-01T12:19:35;15.20;99.90
20370;DHT22;10344;47.592;9.600;2023-01-01T12:22:12;15.20;99.90
20370;DHT22;10344;47.592;9.600;2023-01-01T12:24:39;15.10;99.90
20370;DHT22;10344;47.592;9.600;2023-01-01T12:27:30;15.20;99.90
20370;DHT22;10344;47.592;9.600;2023-01-01T12:30:23;15.30;99.90
20370;DHT22;10344;47.592;9.600;2023-01-01T12:49:35;15.30;99.90
20370;DHT22;10344;47.592;9.600;2023-01-01T12:57:35;15.30;99.90
20370;DHT22;10344;47.592;9.600;2023-01-01T13:00:16;15.40;99.90
20370;DHT22;10344;47.592;9.600;2023-01-01T13:05:49;15.10;99.90
20370;DHT22;10344;47.592;9.600;2023-01-01T13:08:18;15.20;99.90
20370;DHT22;10344;47.592;9.600;2023-01-01T13:10:46;15.30;99.90
20370;DHT22;10344;47.592;9.600;2023-01-01T13:13:14;15.30;99.90
20370;DHT22;10344;47.592;9.600;2023-01-01T13:21:03;14.90;99.90
20370;DHT22;10344;47.592;9.600;2023-01-01T13:26:47;14.90;99.90
20370;DHT22;10344;47.592;9.600;2023-01-01T13:40:03;14.40;99.90
20370;DHT22;10344;47.592;9.600;2023-01-01T13:45:37;14.60;99.90
20370;DHT22;10344;47.592;9.600;2023-01-01T14:04:59;14.10;99.90
20370;DHT22;10344;47.592;9.600;2023-01-01T14:11:52;13.90;99.90
20370;DHT22;10344;47.592;9.600;2023-01-01T14:17:59;13.70;99.90
20370;DHT22;10344;47.592;9.600;2023-01-01T14:38:33;13.20;99.90
20370;DHT22;10344;47.592;9.600;2023-01-01T15:48:45;10.90;99.90
20370;DHT22;10344;47.592;9.600;2023-01-01T15:54:27;10.60;99.90
